Time;durP1;ratioP1;P1;durP2;ratioP2;P2;SDS_P1;SDS_P2;PMS_P1;PMS_P2;Temp;Humidity;BMP_temperature;BMP_pressure;BME280_temperature;BME280_humidity;BME280_pressure;Samples;Min_cycle;Max_cycle;Signal;HPM_P1;HPM_P2
2022/01/18 00:02:25;;;;;;;28.60;13.38;;;;;;;3.03;95.99;103805.09;5073615;28;20021;-76
2022/01/18 00:04:51;;;;;;;23.60;13.48;;;;;;;3.01;95.80;103805.69;5080080;28;20054;-76
2022/01/18 00:07:16;;;;;;;26.65;13.98;;;;;;;3.00;96.24;103812.50;5081484;28;20036;-76
2022/01/18 00:09:41;;;;;;;26.23;14.00;;;;;;;2.99;96.35;103815.84;5079174;28;20039;-76
2022/01/18 00:12:43;;;;;;;26.30;14.25;;;;;;;3.00;96.36;103814.16;5084828;28;20029;-76
2022/01/18 00:15:15;;;;;;;31.52;14.18;;;;;;;3.03;96.97;103817.09;5077245;28;20055;-76
2022/01/18 00:17:51;;;;;;;36.95;14.27;;;;;;;3.07;97.47;103816.63;5084144;28;20183;-76
2022/01/18 00:20:21;;;;;;;32.58;15.02;;;;;;;3.10;97.54;103822.06;5078857;28;20145;-76
2022/01/18 00:22:47;;;;;;;45.92;20.65;;;;;;;3.14;97.82;103819.06;5077530;28;20259;-76
2022/01/18 00:25:12;;;;;;;43.22;19.20;;;;;;;3.17;98.26;103814.22;5078101;28;20015;-76
2022/01/18 00:27:38;;;;;;;37.67;16.15;;;;;;;3.20;98.14;103811.97;5085341;28;20028;-76
2022/01/18 00:30:21;;;;;;;42.15;16.55;;;;;;;3.23;98.45;103814.88;5079288;28;20023;-76
2022/01/18 00:35:26;;;;;;;43.10;18.27;;;;;;;3.32;98.70;103825.19;5078657;28;20024;-77
2022/01/18 00:37:54;;;;;;;71.22;31.77;;;;;;;3.36;98.91;103840.22;5078578;28;20032;-76
2022/01/18 00:40:20;;;;;;;43.53;18.57;;;;;;;3.38;99.05;103830.06;5073624;28;20025;-76
2022/01/18 00:42:45;;;;;;;43.33;19.60;;;;;;;3.40;98.78;103844.00;5082992;28;20305;-76
2022/01/18 00:45:10;;;;;;;44.00;19.95;;;;;;;3.41;98.98;103832.94;5071708;28;20310;-77
2022/01/18 00:47:36;;;;;;;40.13;17.30;;;;;;;3.42;99.06;103835.66;5080397;28;20059;-77
2022/01/18 00:50:03;;;;;;;39.08;16.58;;;;;;;3.45;98.97;103838.56;5080020;28;20062;-76
2022/01/18 00:52:31;;;;;;;44.25;18.10;;;;;;;3.48;99.22;103841.44;5084900;28;20263;-76
2022/01/18 00:54:59;;;;;;;47.05;19.23;;;;;;;3.52;99.46;103842.69;5085613;28;20028;-76
2022/01/18 00:57:24;;;;;;;46.10;20.27;;;;;;;3.56;99.65;103846.47;5080642;28;20040;-76
2022/01/18 00:59:49;;;;;;;49.05;19.27;;;;;;;3.59;99.62;103860.59;5080506;28;20199;-76
2022/01/18 01:02:15;;;;;;;50.88;18.83;;;;;;;3.63;99.73;103857.53;5079261;28;20255;-76
2022/01/18 01:04:47;;;;;;;48.38;18.52;;;;;;;3.67;99.64;103858.75;5080279;28;20020;-76
2022/01/18 01:07:13;;;;;;;41.22;16.98;;;;;;;3.69;99.68;103851.19;5073417;28;20017;-75
2022/01/18 01:09:38;;;;;;;36.15;17.02;;;;;;;3.69;99.46;103846.91;5083972;28;20027;-76
2022/01/18 01:12:05;;;;;;;40.35;17.35;;;;;;;3.70;99.48;103837.53;5083113;28;20036;-76
2022/01/18 01:14:32;;;;;;;35.03;16.25;;;;;;;3.71;99.56;103844.50;5079318;28;20019;-76
2022/01/18 01:17:07;;;;;;;42.03;17.27;;;;;;;3.72;99.55;103842.09;5070662;28;20091;-76
2022/01/18 01:31:56;;;;;;;37.67;17.65;;;;;;;3.73;99.38;103848.16;5073175;28;20112;-76
2022/01/18 01:44:05;;;;;;;44.58;17.30;;;;;;;3.82;99.84;103849.06;5084270;28;20020;-76
2022/01/18 01:46:31;;;;;;;;;;;;;;;3.87;99.65;103840.13;5083656;28;20020;-76
2022/01/18 01:48:59;;;;;;;42.47;16.90;;;;;;;3.86;99.87;103835.72;5078610;28;19900;-76
2022/01/18 01:51:31;;;;;;;51.55;18.70;;;;;;;3.88;100.00;103833.28;5083106;28;20023;-76
2022/01/18 01:54:03;;;;;;;53.10;19.05;;;;;;;3.88;100.00;103830.72;5077526;28;20051;-76
2022/01/18 01:56:30;;;;;;;54.13;19.48;;;;;;;3.88;100.00;103834.22;5084862;28;20070;-76
2022/01/18 01:58:55;;;;;;;48.05;18.75;;;;;;;3.92;100.00;103835.41;5078208;28;20021;-76
2022/01/18 02:01:21;;;;;;;45.33;18.90;;;;;;;3.93;100.00;103839.84;5076979;28;20028;-76
2022/01/18 02:03:46;;;;;;;49.63;18.95;;;;;;;3.93;100.00;103839.84;5080915;28;20024;-76
2022/01/18 02:06:12;;;;;;;59.13;19.58;;;;;;;3.95;100.00;103840.88;5083315;28;20027;-76
2022/01/18 02:08:38;;;;;;;53.08;19.83;;;;;;;3.96;100.00;103847.88;5078920;28;20058;-76
2022/01/18 02:11:03;;;;;;;64.68;21.63;;;;;;;3.99;100.00;103850.75;5079822;28;20016;-76
2022/01/18 02:13:29;;;;;;;49.50;19.77;;;;;;;3.99;100.00;103851.66;5075599;28;20039;-76
2022/01/18 02:23:53;;;;;;;53.20;20.08;;;;;;;4.03;100.00;103849.38;5077280;28;20035;-76
2022/01/18 02:26:20;;;;;;;56.45;20.00;;;;;;;4.04;100.00;103848.63;5078460;28;20024;-76
2022/01/18 02:28:47;;;;;;;65.22;21.10;;;;;;;4.05;100.00;103845.28;5081254;28;20016;-76
2022/01/18 02:31:13;;;;;;;56.13;21.08;;;;;;;4.06;100.00;103844.53;5081612;28;20017;-76
2022/01/18 02:33:39;;;;;;;53.38;21.08;;;;;;;4.07;100.00;103846.34;5077445;28;20202;-76
2022/01/18 02:36:09;;;;;;;59.67;21.75;;;;;;;4.07;100.00;103839.53;5075519;28;20028;-76
2022/01/18 02:38:35;;;;;;;53.00;21.45;;;;;;;4.08;100.00;103840.41;5076403;28;20024;-76
2022/01/18 02:41:00;;;;;;;65.05;22.13;;;;;;;4.08;100.00;103832.69;5077380;28;20032;-76
2022/01/18 02:46:11;;;;;;;65.55;21.83;;;;;;;4.10;100.00;103826.00;5078612;28;20119;-76
2022/01/18 02:48:37;;;;;;;61.85;22.08;;;;;;;4.10;100.00;103831.16;5080854;28;20008;-76
2022/01/18 02:51:03;;;;;;;58.72;21.23;;;;;;;4.11;100.00;103832.97;5078013;28;20131;-76
2022/01/18 02:53:29;;;;;;;63.67;22.80;;;;;;;4.12;100.00;103834.81;5078359;28;20012;-76
2022/01/18 02:55:56;;;;;;;59.80;21.00;;;;;;;4.12;100.00;103830.53;5079145;28;20028;-76
2022/01/18 02:58:34;;;;;;;66.35;23.30;;;;;;;4.13;100.00;103828.91;5081226;28;20189;-76
2022/01/18 03:03:25;;;;;;;56.10;21.67;;;;;;;4.14;100.00;103838.44;5087033;28;20024;-76
2022/01/18 03:05:50;;;;;;;66.53;21.92;;;;;;;4.14;100.00;103835.84;5085043;28;20046;-76
2022/01/18 03:08:17;;;;;;;66.03;22.35;;;;;;;4.15;100.00;103835.09;5087135;28;20024;-76
2022/01/18 03:10:42;;;;;;;60.65;22.17;;;;;;;4.15;100.00;103836.00;5086065;28;20035;-76
2022/01/18 03:13:08;;;;;;;65.07;22.02;;;;;;;4.16;100.00;103832.69;5076890;28;20032;-76
2022/01/18 03:15:34;;;;;;;64.53;22.42;;;;;;;4.18;100.00;103837.97;5081251;28;20093;-76
2022/01/18 03:18:01;;;;;;;58.83;22.20;;;;;;;4.16;100.00;103835.25;5086726;28;20028;-76
2022/01/18 03:20:27;;;;;;;70.63;22.05;;;;;;;4.18;100.00;103840.56;5082022;28;20259;-76
2022/01/18 03:22:53;;;;;;;71.18;23.23;;;;;;;4.17;100.00;103841.31;5084080;28;20021;-76
2022/01/18 03:28:05;;;;;;;80.05;23.10;;;;;;;4.17;100.00;103841.31;5083742;28;20029;-76
2022/01/18 03:30:44;;;;;;;64.30;23.52;;;;;;;4.20;100.00;103844.22;5077400;28;20032;-76
2022/01/18 03:33:14;;;;;;;;;;;;;;;4.24;100.00;103845.41;5085325;28;20202;-76
2022/01/18 03:35:41;;;;;;;65.63;23.05;;;;;;;4.22;100.00;103847.84;5077486;28;19904;-76
2022/01/18 03:38:07;;;;;;;68.15;23.05;;;;;;;4.21;100.00;103846.03;5071434;28;20180;-76
2022/01/18 03:40:33;;;;;;;69.55;22.48;;;;;;;4.22;100.00;103844.38;5086298;28;20024;-76
2022/01/18 03:43:01;;;;;;;62.03;22.10;;;;;;;4.22;100.00;103846.94;5086069;28;20213;-76
2022/01/18 03:45:39;;;;;;;63.83;22.98;;;;;;;4.22;100.00;103842.69;5085586;28;20293;-76
2022/01/18 03:48:08;;;;;;;63.47;21.88;;;;;;;4.22;100.00;103844.38;5083802;28;20048;-76
2022/01/18 03:50:33;;;;;;;64.90;22.27;;;;;;;4.22;100.00;103844.38;5084016;28;20052;-77
2022/01/18 03:52:59;;;;;;;67.95;24.70;;;;;;;4.21;100.00;103838.28;5080238;28;20073;-76
2022/01/18 03:55:24;;;;;;;68.63;22.65;;;;;;;4.21;100.00;103848.59;5085903;28;20167;-76
2022/01/18 03:57:50;;;;;;;73.03;24.25;;;;;;;4.21;100.00;103847.69;5085742;28;20274;-76
2022/01/18 04:00:22;;;;;;;62.28;24.15;;;;;;;4.21;100.00;103856.34;5084435;28;20052;-76
2022/01/18 04:02:49;;;;;;;78.40;24.38;;;;;;;4.20;100.00;103858.78;5081241;28;20035;-76
2022/01/18 04:05:14;;;;;;;68.32;25.40;;;;;;;4.20;100.00;103869.09;5083835;28;20167;-76
2022/01/18 04:07:40;;;;;;;64.43;24.70;;;;;;;4.19;100.00;103863.03;5079296;28;20028;-76
2022/01/18 04:10:07;;;;;;;75.03;25.02;;;;;;;4.21;100.00;103869.25;5085300;28;20316;-77
2022/01/18 04:12:34;;;;;;;63.88;24.67;;;;;;;4.20;100.00;103862.28;5082176;28;20203;-77
2022/01/18 04:15:07;;;;;;;75.45;25.60;;;;;;;4.20;100.00;103866.53;5081675;28;20350;-76
2022/01/18 04:28:29;;;;;;;64.45;26.63;;;;;;;4.19;100.00;103868.19;5075527;28;20047;-76
2022/01/18 04:30:54;;;;;;;66.13;25.65;;;;;;;4.19;100.00;103875.94;5081140;28;20024;-76
2022/01/18 04:33:20;;;;;;;62.85;25.48;;;;;;;4.20;100.00;103877.78;5084341;28;20076;-76
2022/01/18 04:35:45;;;;;;;63.97;25.40;;;;;;;4.18;100.00;103872.44;5080497;28;20333;-76
2022/01/18 04:38:10;;;;;;;60.13;25.70;;;;;;;4.20;100.00;103875.19;5082204;28;20058;-76
2022/01/18 04:40:40;;;;;;;64.75;25.92;;;;;;;4.18;100.00;103877.59;5084850;28;20025;-76
2022/01/18 04:43:27;;;;;;;59.63;26.83;;;;;;;4.18;100.00;103871.53;5081615;28;20040;-76
2022/01/18 04:48:37;;;;;;;67.53;27.67;;;;;;;4.16;100.00;103867.91;5074988;28;20070;-76
2022/01/18 04:51:09;;;;;;;71.05;27.17;;;;;;;4.15;100.00;103871.22;5081194;28;20099;-76
2022/01/18 04:53:41;;;;;;;64.03;26.83;;;;;;;4.16;100.00;103873.06;5087968;28;20266;-76
2022/01/18 04:56:14;;;;;;;69.90;26.83;;;;;;;4.15;100.00;103874.72;5082210;28;20024;-76
2022/01/18 04:58:39;;;;;;;64.85;27.00;;;;;;;4.14;100.00;103874.56;5078444;28;20036;-76
2022/01/18 05:01:07;;;;;;;68.97;26.65;;;;;;;4.15;100.00;103886.72;5084242;28;20035;-76
2022/01/18 05:03:33;;;;;;;66.97;27.08;;;;;;;4.13;100.00;103884.00;5076551;28;20073;-76
2022/01/18 05:06:03;;;;;;;63.15;26.38;;;;;;;4.12;100.00;103884.75;5077144;28;20017;-76
2022/01/18 05:08:29;;;;;;;69.82;26.00;;;;;;;4.12;100.00;103883.84;5080739;28;20039;-76
2022/01/18 05:10:58;;;;;;;67.55;27.23;;;;;;;4.10;100.00;103882.75;5083588;28;20031;-76
2022/01/18 05:24:24;;;;;;;78.93;27.05;;;;;;;4.09;100.00;103893.88;5082408;28;20020;-76
2022/01/18 05:26:51;;;;;;;72.88;26.30;;;;;;;4.08;100.00;103889.44;5073322;28;20156;-76
2022/01/18 05:29:17;;;;;;;69.20;27.27;;;;;;;4.07;100.00;103888.56;5076526;28;20021;-76
2022/01/18 05:31:43;;;;;;;63.65;24.73;;;;;;;4.07;100.00;103887.63;5073556;28;20028;-76
2022/01/18 05:34:08;;;;;;;64.30;24.65;;;;;;;4.06;100.00;103885.81;5074415;28;20028;-76
2022/01/18 05:36:34;;;;;;;61.88;24.90;;;;;;;4.05;100.00;103890.06;5076552;28;20271;-76
2022/01/18 05:38:59;;;;;;;76.85;25.15;;;;;;;4.06;100.00;103885.81;5084035;28;20024;-76
2022/01/18 05:41:24;;;;;;;61.67;23.70;;;;;;;4.06;100.00;103885.81;5083225;28;20016;-76
2022/01/18 05:43:50;;;;;;;67.13;24.38;;;;;;;4.06;100.00;103890.97;5084253;28;20024;-76
2022/01/18 05:46:16;;;;;;;69.07;25.40;;;;;;;4.06;100.00;103878.09;5077518;28;20087;-76
2022/01/18 05:48:41;;;;;;;64.53;23.17;;;;;;;4.05;100.00;103878.84;5077920;28;20071;-76
2022/01/18 05:51:06;;;;;;;72.00;23.80;;;;;;;4.06;100.00;103880.66;5075866;28;20039;-77
2022/01/18 05:53:36;;;;;;;70.15;24.92;;;;;;;4.07;100.00;103877.28;5072989;28;20263;-76
2022/01/18 05:56:03;;;;;;;68.82;25.20;;;;;;;4.07;100.00;103882.47;5083987;28;20024;-76
2022/01/18 05:58:28;;;;;;;64.00;23.65;;;;;;;4.08;100.00;103886.88;5082431;28;20047;-76
2022/01/18 06:00:54;;;;;;;65.25;23.77;;;;;;;4.07;100.00;103885.03;5076798;28;20021;-76
2022/01/18 06:03:32;;;;;;;72.28;24.23;;;;;;;4.07;100.00;103875.66;5077572;28;20005;-76
2022/01/18 06:08:42;;;;;;;68.43;24.48;;;;;;;4.05;100.00;103878.84;5080392;28;20028;-76
2022/01/18 06:11:08;;;;;;;70.38;24.52;;;;;;;4.07;100.00;103885.03;5076553;28;20055;-76
2022/01/18 06:13:33;;;;;;;61.00;25.15;;;;;;;4.07;100.00;103885.03;5082953;28;20217;-76
2022/01/18 06:15:59;;;;;;;69.10;26.50;;;;;;;4.07;100.00;103887.63;5077665;28;20017;-76
2022/01/18 06:18:24;;;;;;;75.45;28.85;;;;;;;4.06;100.00;103884.13;5076268;28;20027;-76
2022/01/18 06:20:49;;;;;;;66.32;26.25;;;;;;;4.08;100.00;103881.72;5074589;28;20031;-76
2022/01/18 06:23:14;;;;;;;70.97;25.67;;;;;;;4.08;100.00;103881.72;5074913;28;20066;-75
2022/01/18 06:25:41;;;;;;;70.70;24.27;;;;;;;4.08;100.00;103885.19;5078972;28;20271;-76
2022/01/18 06:28:06;;;;;;;66.55;23.70;;;;;;;4.07;100.00;103896.28;5079321;28;20124;-76
2022/01/18 06:30:32;;;;;;;55.60;22.13;;;;;;;4.08;100.00;103892.94;5074589;28;20094;-76
2022/01/18 06:32:57;;;;;;;71.43;23.92;;;;;;;4.07;100.00;103885.03;5067503;28;20028;-76
2022/01/18 06:35:23;;;;;;;67.38;23.20;;;;;;;4.05;100.00;103882.31;5073857;28;20044;-76
2022/01/18 06:37:48;;;;;;;70.63;23.08;;;;;;;4.07;100.00;103888.56;5077555;28;20055;-76
2022/01/18 06:40:14;;;;;;;62.22;22.70;;;;;;;4.08;100.00;103884.28;5068749;28;20032;-76
2022/01/18 06:42:39;;;;;;;61.42;22.55;;;;;;;4.07;100.00;103873.06;5076601;28;20013;-76
2022/01/18 06:45:06;;;;;;;66.97;21.80;;;;;;;4.08;100.00;103876.53;5077317;28;20017;-76
2022/01/18 06:47:31;;;;;;;67.20;23.05;;;;;;;4.08;100.00;103880.03;5071118;28;20032;-76
2022/01/18 06:49:57;;;;;;;72.10;23.55;;;;;;;4.08;100.00;103877.44;5074013;28;20016;-76
2022/01/18 06:52:22;;;;;;;72.20;24.65;;;;;;;4.07;100.00;103883.38;5074766;28;20048;-76
2022/01/18 06:54:48;;;;;;;72.78;24.02;;;;;;;4.07;100.00;103888.56;5074207;28;20247;-76
2022/01/18 06:57:13;;;;;;;68.75;22.70;;;;;;;4.07;100.00;103887.63;5079834;28;20091;-76
2022/01/18 06:59:38;;;;;;;68.68;24.42;;;;;;;4.08;100.00;103889.44;5081388;28;20019;-76
2022/01/18 07:02:04;;;;;;;77.07;23.55;;;;;;;4.07;100.00;103892.78;5070129;28;20157;-76
2022/01/18 07:04:30;;;;;;;68.00;23.10;;;;;;;4.04;100.00;103898.56;5078560;28;20166;-76
2022/01/18 07:06:55;;;;;;;74.35;23.10;;;;;;;4.03;100.00;103904.47;5072556;28;20020;-76
2022/01/18 07:09:23;;;;;;;71.75;23.33;;;;;;;4.02;100.00;103894.00;5080904;28;20025;-76
2022/01/18 07:11:55;;;;;;;66.18;22.83;;;;;;;4.02;100.00;103901.75;5079753;28;20352;-76
2022/01/18 07:14:21;;;;;;;64.38;22.73;;;;;;;4.00;100.00;103897.34;5083053;28;20036;-76
2022/01/18 07:16:46;;;;;;;72.05;23.35;;;;;;;4.02;100.00;103899.16;5074297;28;20028;-77
2022/01/18 07:19:12;;;;;;;64.80;22.40;;;;;;;4.02;100.00;103907.81;5077963;28;20020;-76
2022/01/18 07:21:37;;;;;;;71.78;23.00;;;;;;;4.02;100.00;103907.81;5080763;28;20016;-76
2022/01/18 07:24:15;;;;;;;71.55;23.38;;;;;;;4.01;100.00;103905.97;5081777;28;20020;-76
2022/01/18 07:26:40;;;;;;;69.95;22.05;;;;;;;4.02;100.00;103909.50;5078694;28;20148;-76
2022/01/18 07:29:05;;;;;;;66.35;21.55;;;;;;;4.03;100.00;103919.03;5076252;28;20290;-76
2022/01/18 07:31:32;;;;;;;68.45;23.42;;;;;;;4.04;100.00;103919.22;5069679;28;20032;-76
2022/01/18 07:33:57;;;;;;;67.88;22.63;;;;;;;4.05;100.00;103923.59;5078695;28;20179;-76
2022/01/18 07:36:23;;;;;;;75.13;23.25;;;;;;;4.06;100.00;103914.19;5076472;28;20025;-76
2022/01/18 07:38:48;;;;;;;74.65;22.92;;;;;;;4.07;100.00;103916.00;5077492;28;20074;-76
2022/01/18 07:41:14;;;;;;;65.15;22.52;;;;;;;4.07;100.00;103916.94;5082930;28;20024;-76
2022/01/18 07:43:40;;;;;;;71.85;22.95;;;;;;;4.08;100.00;103920.41;5069903;28;20030;-76
2022/01/18 07:46:06;;;;;;;72.88;22.17;;;;;;;4.07;100.00;103919.50;5082032;28;20004;-76
2022/01/18 07:48:31;;;;;;;72.45;23.85;;;;;;;4.08;100.00;103920.41;5080458;28;20135;-76
2022/01/18 07:50:58;;;;;;;69.18;22.15;;;;;;;4.08;100.00;103920.41;5078349;28;20036;-76
2022/01/18 07:53:24;;;;;;;78.65;22.80;;;;;;;4.10;100.00;103926.63;5077856;28;20015;-77
2022/01/18 07:55:50;;;;;;;63.13;21.98;;;;;;;4.10;100.00;103926.63;5079306;28;20024;-76
2022/01/18 07:58:16;;;;;;;76.55;23.50;;;;;;;4.11;100.00;103920.72;5083459;28;20078;-76
2022/01/18 08:00:41;;;;;;;70.40;22.90;;;;;;;4.12;100.00;103932.88;5081137;28;20233;-76
2022/01/18 08:03:06;;;;;;;71.13;23.08;;;;;;;4.13;100.00;103927.84;5083069;28;20040;-76
2022/01/18 08:05:32;;;;;;;71.22;24.00;;;;;;;4.15;100.00;103933.16;5085809;28;20012;-76
2022/01/18 08:07:57;;;;;;;78.57;24.25;;;;;;;4.16;100.00;103932.41;5083919;28;20024;-76
2022/01/18 08:10:30;;;;;;;74.88;22.92;;;;;;;4.15;100.00;103934.06;5077210;28;20017;-76
2022/01/18 08:12:55;;;;;;;79.90;23.55;;;;;;;4.16;100.00;103935.00;5077835;28;20040;-76
2022/01/18 08:15:22;;;;;;;77.70;24.23;;;;;;;4.17;100.00;103936.81;5076047;28;20044;-76
2022/01/18 08:17:54;;;;;;;76.10;23.08;;;;;;;4.18;100.00;103933.47;5080376;28;20170;-75
2022/01/18 08:20:21;;;;;;;66.07;22.15;;;;;;;4.20;100.00;103929.38;5079248;28;20101;-76
2022/01/18 08:22:47;;;;;;;70.90;23.77;;;;;;;4.20;100.00;103929.38;5070448;28;20230;-76
2022/01/18 08:25:14;;;;;;;79.75;25.55;;;;;;;4.22;100.00;103927.84;5073574;28;20280;-76
2022/01/18 08:27:42;;;;;;;79.57;23.92;;;;;;;4.25;100.00;103924.69;5080880;28;20032;-77
2022/01/18 08:30:10;;;;;;;79.60;23.90;;;;;;;4.25;100.00;103930.75;5074016;28;20028;-76
2022/01/18 08:32:36;;;;;;;89.47;23.20;;;;;;;4.25;100.00;103925.56;5081120;28;20023;-76
2022/01/18 08:35:04;;;;;;;81.45;23.67;;;;;;;4.27;100.00;103923.16;5077142;28;20050;-76
2022/01/18 08:37:30;;;;;;;84.38;24.17;;;;;;;4.27;100.00;103918.00;5084208;28;20028;-76
2022/01/18 08:39:56;;;;;;;88.07;24.02;;;;;;;4.29;100.00;103919.97;5072148;28;20070;-76
2022/01/18 08:42:23;;;;;;;89.32;24.95;;;;;;;4.31;100.00;103914.97;5075934;28;20012;-76
2022/01/18 08:44:49;;;;;;;84.95;25.73;;;;;;;4.30;100.00;103918.28;5082002;28;20100;-76
2022/01/18 08:47:17;;;;;;;94.82;23.83;;;;;;;4.32;100.00;103919.38;5080517;28;20012;-76
2022/01/18 08:49:44;;;;;;;89.43;24.30;;;;;;;4.33;100.00;103923.75;5081387;28;20284;-76
2022/01/18 08:52:09;;;;;;;91.90;24.08;;;;;;;4.34;100.00;103930.75;5082472;28;20024;-76
2022/01/18 08:54:35;;;;;;;90.28;23.63;;;;;;;4.35;100.00;103923.16;5080161;28;20036;-76
2022/01/18 08:57:01;;;;;;;86.13;23.20;;;;;;;4.38;100.00;103934.56;5088363;28;20051;-76
2022/01/18 08:59:28;;;;;;;98.72;24.70;;;;;;;4.39;100.00;103929.53;5077257;28;20036;-76
2022/01/18 09:01:53;;;;;;;77.82;23.55;;;;;;;4.40;100.00;103933.91;5085406;28;20239;-76
2022/01/18 09:04:20;;;;;;;89.35;26.10;;;;;;;4.40;100.00;103931.34;5083918;28;20025;-76
2022/01/18 09:06:48;;;;;;;93.90;26.30;;;;;;;4.44;100.00;103930.00;5080222;28;20246;-76
2022/01/18 09:09:16;;;;;;;94.50;26.30;;;;;;;4.46;100.00;103928.44;5084379;28;20028;-76
2022/01/18 09:11:41;;;;;;;91.35;25.02;;;;;;;4.47;100.00;103927.69;5072988;28;20040;-76
2022/01/18 09:14:06;;;;;;;89.68;25.33;;;;;;;4.50;100.00;103933.16;5084329;28;20016;-76
2022/01/18 09:16:32;;;;;;;79.18;23.60;;;;;;;4.52;100.00;103929.09;5079101;28;20274;-75
2022/01/18 09:18:57;;;;;;;88.60;25.77;;;;;;;4.55;100.00;103936.19;5081909;28;20322;-76
2022/01/18 09:21:24;;;;;;;76.65;23.65;;;;;;;4.58;100.00;103939.09;5068797;28;20179;-76
2022/01/18 09:23:50;;;;;;;74.10;23.55;;;;;;;4.60;100.00;103941.03;5078806;28;20036;-76
2022/01/18 09:26:15;;;;;;;86.70;26.02;;;;;;;4.64;100.00;103939.69;5079936;28;20016;-76
2022/01/18 09:28:41;;;;;;;81.88;24.42;;;;;;;4.66;100.00;103941.69;5070135;28;20024;-76
2022/01/18 09:31:06;;;;;;;76.03;24.23;;;;;;;4.69;100.00;103948.78;5083112;28;20028;-76
2022/01/18 09:33:32;;;;;;;83.78;25.25;;;;;;;4.70;100.00;103948.94;5084435;28;20047;-76
2022/01/18 09:35:57;;;;;;;87.65;24.40;;;;;;;4.73;100.00;103948.31;5068397;28;20024;-76
2022/01/18 09:38:23;;;;;;;87.53;26.75;;;;;;;4.75;100.00;103945.91;5075904;28;20024;-76
2022/01/18 09:40:49;;;;;;;100.40;27.13;;;;;;;4.76;100.00;103948.63;5080586;28;20031;-76
2022/01/18 09:43:16;;;;;;;86.00;26.35;;;;;;;4.79;100.00;103954.09;5080495;28;20089;-76
2022/01/18 09:45:42;;;;;;;88.15;27.17;;;;;;;4.82;100.00;103951.81;5077787;28;20086;-76
2022/01/18 09:48:09;;;;;;;88.43;26.05;;;;;;;4.86;100.00;103953.91;5078835;28;20032;-76
2022/01/18 09:50:37;;;;;;;83.38;26.33;;;;;;;4.89;100.00;103953.31;5081255;28;20065;-76
2022/01/18 09:53:05;;;;;;;81.88;25.02;;;;;;;4.95;100.00;103953.91;5077271;28;20290;-76
2022/01/18 09:55:32;;;;;;;85.90;25.98;;;;;;;4.98;100.00;103951.63;5082077;28;20321;-76
2022/01/18 09:58:00;;;;;;;84.07;25.33;;;;;;;5.02;100.00;103951.16;5077941;28;20228;-76
2022/01/18 10:00:27;;;;;;;77.55;23.60;;;;;;;5.07;100.00;103961.94;5080096;28;20313;-76
2022/01/18 10:02:53;;;;;;;81.28;25.63;;;;;;;5.10;100.00;103959.66;5079801;28;20260;-76
2022/01/18 10:05:29;;;;;;;83.13;23.92;;;;;;;5.14;100.00;103959.19;5083370;28;20031;-75
2022/01/18 10:08:12;;;;;;;84.78;26.55;;;;;;;5.16;100.00;103951.59;5080106;28;20073;-76
2022/01/18 10:10:44;;;;;;;85.13;25.33;;;;;;;5.20;100.00;103956.28;5073833;28;20039;-76
2022/01/18 10:13:25;;;;;;;82.00;26.65;;;;;;;5.22;100.00;103952.16;5073713;28;20033;-76
2022/01/18 10:15:57;;;;;;;80.15;24.50;;;;;;;5.25;100.00;103957.63;5071827;28;20171;-76
2022/01/18 10:18:34;;;;;;;82.75;24.67;;;;;;;5.30;100.00;103960.66;5070176;28;20267;-82
2022/01/18 10:21:00;;;;;;;80.30;24.38;;;;;;;5.33;100.00;103955.75;5083780;28;20023;-76
2022/01/18 10:23:25;;;;;;;82.05;24.50;;;;;;;5.35;100.00;103957.75;5080259;28;20020;-76
2022/01/18 10:25:53;;;;;;;81.60;24.10;;;;;;;5.38;100.00;103950.25;5079801;28;20012;-76
2022/01/18 10:28:33;;;;;;;89.38;24.58;;;;;;;5.40;100.00;103951.34;5073297;28;20135;-76
2022/01/18 10:31:04;;;;;;;73.40;22.80;;;;;;;5.43;100.00;103952.38;5083936;28;20221;-76
2022/01/18 10:33:36;;;;;;;76.72;24.08;;;;;;;5.46;100.00;103950.09;5083722;28;20039;-76
2022/01/18 10:36:12;;;;;;;78.38;22.75;;;;;;;5.48;100.00;103940.81;5070687;28;20273;-76
2022/01/18 10:38:43;;;;;;;73.75;22.90;;;;;;;5.51;100.00;103941.09;5070406;28;20024;-75
2022/01/18 10:41:31;;;;;;;75.75;23.25;;;;;;;5.56;100.00;103939.84;5088479;28;20023;-76
2022/01/18 10:44:09;;;;;;;87.15;25.02;;;;;;;5.68;100.00;103943.59;5076080;28;20016;-75
2022/01/18 10:46:57;;;;;;;77.38;24.77;;;;;;;5.86;100.00;103941.78;5080746;28;20250;-75
2022/01/18 10:49:44;;;;;;;77.15;24.52;;;;;;;5.93;100.00;103938.13;5071535;28;20020;-76
2022/01/18 10:52:12;;;;;;;78.45;23.67;;;;;;;5.98;99.63;103926.56;5070810;28;20028;-76
2022/01/18 10:54:49;;;;;;;88.18;24.98;;;;;;;5.99;99.42;103925.75;5080256;28;20047;-75
2022/01/18 10:57:18;;;;;;;85.50;24.70;;;;;;;5.98;99.28;103921.38;5079476;28;20028;-75
2022/01/18 10:59:43;;;;;;;77.18;24.92;;;;;;;5.98;99.48;103923.03;5075679;28;20196;-76
2022/01/18 11:02:16;;;;;;;89.15;26.60;;;;;;;5.98;99.35;103920.44;5072852;28;20067;-75
2022/01/18 11:04:53;;;;;;;90.80;26.98;;;;;;;5.99;99.16;103918.00;5068311;28;20029;-75
2022/01/18 11:07:22;;;;;;;76.15;25.63;;;;;;;6.03;99.33;103911.44;5066834;28;20036;-76
2022/01/18 11:09:48;;;;;;;84.13;26.48;;;;;;;6.06;99.01;103906.53;5080543;28;20032;-76
2022/01/18 11:12:13;;;;;;;79.82;26.75;;;;;;;6.11;99.34;103906.94;5074433;28;20147;-75
2022/01/18 11:14:44;;;;;;;79.18;25.67;;;;;;;6.14;98.96;103902.97;5073279;28;20020;-75
2022/01/18 11:17:13;;;;;;;86.55;24.45;;;;;;;6.21;98.97;103912.19;5082141;28;20031;-76
2022/01/18 11:19:39;;;;;;;79.72;25.05;;;;;;;6.24;98.87;103904.69;5071388;28;20021;-75
2022/01/18 11:22:10;;;;;;;73.47;24.95;;;;;;;6.29;98.46;103916.41;5072182;28;20017;-75
2022/01/18 11:24:38;;;;;;;74.43;22.70;;;;;;;6.30;98.36;103912.13;5084372;28;20294;-75
2022/01/18 11:27:08;;;;;;;66.20;21.83;;;;;;;6.32;98.31;103908.00;5081848;28;20020;-75
2022/01/18 11:29:35;;;;;;;71.68;21.77;;;;;;;6.35;97.88;103906.59;5074051;28;20016;-75
2022/01/18 11:32:01;;;;;;;70.88;21.38;;;;;;;6.39;97.17;103897.44;5079890;28;20086;-75
2022/01/18 11:34:58;;;;;;;61.67;20.48;;;;;;;6.43;97.65;103897.84;5077491;28;20032;-76
2022/01/18 11:37:40;;;;;;;71.50;21.17;;;;;;;6.48;97.40;103900.84;5067930;28;20236;-76
2022/01/18 11:40:09;;;;;;;62.70;19.25;;;;;;;6.52;96.36;103896.84;5086688;28;20043;-76
2022/01/18 11:42:46;;;;;;;61.38;17.10;;;;;;;6.54;96.00;103884.94;5087081;28;20042;-75
2022/01/18 11:45:29;;;;;;;56.83;15.52;;;;;;;6.56;95.30;103886.91;5076657;28;20025;-76
2022/01/18 11:48:14;;;;;;;60.85;15.73;;;;;;;6.58;94.97;103887.03;5074052;28;20040;-75
2022/01/18 11:50:43;;;;;;;52.83;16.00;;;;;;;6.59;94.96;103889.75;5083858;28;20020;-76
2022/01/18 11:53:26;;;;;;;55.47;16.58;;;;;;;6.61;94.83;103887.31;5077816;28;20152;-75
2022/01/18 11:55:57;;;;;;;52.92;15.80;;;;;;;6.64;94.81;103892.75;5082537;28;20032;-76
2022/01/18 11:58:24;;;;;;;48.03;15.23;;;;;;;6.68;94.89;103889.66;5079170;28;20051;-76
2022/01/18 12:00:56;;;;;;;53.92;16.02;;;;;;;6.72;94.49;103884.00;5077863;28;20020;-75
2022/01/18 12:03:41;;;;;;;52.95;19.02;;;;;;;6.76;93.88;103883.50;5082387;28;20025;-76
2022/01/18 12:06:07;;;;;;;46.30;16.30;;;;;;;6.82;93.28;103890.88;5078104;28;20086;-75
2022/01/18 12:08:38;;;;;;;61.67;17.17;;;;;;;6.85;92.70;103887.66;5073610;28;20021;-75
2022/01/18 12:11:10;;;;;;;55.60;18.33;;;;;;;6.87;93.06;103878.34;5073715;28;20088;-76
2022/01/18 12:13:46;;;;;;;60.53;17.92;;;;;;;6.91;93.16;103870.97;5078309;28;20016;-76
2022/01/18 12:16:20;;;;;;;51.45;16.23;;;;;;;6.94;93.88;103870.31;5076279;28;20024;-67
2022/01/18 12:19:12;;;;;;;47.30;12.98;;;;;;;7.00;93.69;103872.56;5080685;28;20027;-68
2022/01/18 12:21:44;;;;;;;47.08;12.60;;;;;;;7.01;92.05;103872.69;5077415;28;20305;-67
2022/01/18 12:24:27;;;;;;;40.88;11.85;;;;;;;7.03;92.13;103876.28;5080865;28;20051;-68
2022/01/18 12:27:00;;;;;;;38.00;11.05;;;;;;;7.01;90.29;103864.91;5085136;28;20005;-67